sensor_id;sensor_type;location;lat;lon;timestamp;P1;durP1;ratioP1;P2;durP2;ratioP2
62798;SDS011;48842;51.046;13.796;2024-03-23T00:53:41;8.90;;;7.90;;
62798;SDS011;48842;51.046;13.796;2024-03-23T00:56:06;13.43;;;9.00;;
62798;SDS011;48842;51.046;13.796;2024-03-23T00:58:31;10.87;;;9.23;;
62798;SDS011;48842;51.046;13.796;2024-03-23T01:00:57;14.30;;;8.70;;
62798;SDS011;48842;51.046;13.796;2024-03-23T01:03:22;10.80;;;8.70;;
62798;SDS011;48842;51.046;13.796;2024-03-23T01:05:47;15.20;;;9.17;;
62798;SDS011;48842;51.046;13.796;2024-03-23T01:08:13;12.27;;;10.00;;
62798;SDS011;48842;51.046;13.796;2024-03-23T01:10:39;12.90;;;10.60;;
62798;SDS011;48842;51.046;13.796;2024-03-23T01:13:04;13.87;;;11.17;;
62798;SDS011;48842;51.046;13.796;2024-03-23T01:15:29;12.90;;;10.60;;
62798;SDS011;48842;51.046;13.796;2024-03-23T01:17:55;16.70;;;11.13;;
62798;SDS011;48842;51.046;13.796;2024-03-23T01:20:20;19.90;;;10.87;;
62798;SDS011;48842;51.046;13.796;2024-03-23T01:22:45;15.80;;;11.73;;
62798;SDS011;48842;51.046;13.796;2024-03-23T01:25:11;18.67;;;11.90;;
62798;SDS011;48842;51.046;13.796;2024-03-23T01:27:36;15.83;;;12.50;;
62798;SDS011;48842;51.046;13.796;2024-03-23T01:30:01;18.83;;;11.80;;
62798;SDS011;48842;51.046;13.796;2024-03-23T01:32:27;15.73;;;11.90;;
62798;SDS011;48842;51.046;13.796;2024-03-23T01:34:52;17.60;;;12.40;;
62798;SDS011;48842;51.046;13.796;2024-03-23T01:37:17;23.40;;;11.40;;
62798;SDS011;48842;51.046;13.796;2024-03-23T01:39:43;23.80;;;14.40;;
62798;SDS011;48842;51.046;13.796;2024-03-23T01:42:08;20.60;;;13.30;;
62798;SDS011;48842;51.046;13.796;2024-03-23T01:44:33;21.63;;;14.07;;
62798;SDS011;48842;51.046;13.796;2024-03-23T01:46:58;18.80;;;13.17;;
62798;SDS011;48842;51.046;13.796;2024-03-23T01:49:24;19.70;;;13.77;;
62798;SDS011;48842;51.046;13.796;2024-03-23T01:51:49;15.80;;;12.93;;
62798;SDS011;48842;51.046;13.796;2024-03-23T01:54:15;22.43;;;13.90;;
62798;SDS011;48842;51.046;13.796;2024-03-23T01:56:40;20.77;;;13.27;;
62798;SDS011;48842;51.046;13.796;2024-03-23T01:59:06;21.40;;;14.70;;
62798;SDS011;48842;51.046;13.796;2024-03-23T02:01:31;20.53;;;14.30;;
62798;SDS011;48842;51.046;13.796;2024-03-23T02:03:57;18.60;;;14.20;;
62798;SDS011;48842;51.046;13.796;2024-03-23T02:06:23;22.10;;;14.37;;
62798;SDS011;48842;51.046;13.796;2024-03-23T02:08:49;22.13;;;15.03;;
62798;SDS011;48842;51.046;13.796;2024-03-23T02:11:14;24.40;;;15.70;;
62798;SDS011;48842;51.046;13.796;2024-03-23T02:13:40;25.40;;;15.63;;
62798;SDS011;48842;51.046;13.796;2024-03-23T02:16:05;22.60;;;16.33;;
62798;SDS011;48842;51.046;13.796;2024-03-23T02:18:31;23.03;;;15.30;;
62798;SDS011;48842;51.046;13.796;2024-03-23T02:20:57;25.47;;;15.40;;
62798;SDS011;48842;51.046;13.796;2024-03-23T02:23:22;21.00;;;14.40;;
62798;SDS011;48842;51.046;13.796;2024-03-23T02:25:49;51.83;;;14.80;;
62798;SDS011;48842;51.046;13.796;2024-03-23T02:28:14;21.27;;;15.07;;
62798;SDS011;48842;51.046;13.796;2024-03-23T02:30:40;18.03;;;13.07;;
62798;SDS011;48842;51.046;13.796;2024-03-23T02:33:05;17.80;;;14.13;;
62798;SDS011;48842;51.046;13.796;2024-03-23T02:35:30;16.80;;;12.10;;
62798;SDS011;48842;51.046;13.796;2024-03-23T02:37:55;19.37;;;11.97;;
62798;SDS011;48842;51.046;13.796;2024-03-23T02:40:22;18.90;;;11.33;;
62798;SDS011;48842;51.046;13.796;2024-03-23T02:42:48;13.47;;;11.13;;
62798;SDS011;48842;51.046;13.796;2024-03-23T02:45:13;15.10;;;11.67;;
62798;SDS011;48842;51.046;13.796;2024-03-23T02:47:38;16.63;;;12.57;;
62798;SDS011;48842;51.046;13.796;2024-03-23T02:50:04;16.03;;;10.90;;
62798;SDS011;48842;51.046;13.796;2024-03-23T02:52:30;14.10;;;10.73;;
62798;SDS011;48842;51.046;13.796;2024-03-23T02:54:55;18.83;;;13.20;;
62798;SDS011;48842;51.046;13.796;2024-03-23T02:57:21;14.57;;;11.67;;
62798;SDS011;48842;51.046;13.796;2024-03-23T02:59:46;18.90;;;12.77;;
62798;SDS011;48842;51.046;13.796;2024-03-23T03:02:12;18.60;;;13.27;;
62798;SDS011;48842;51.046;13.796;2024-03-23T03:04:38;17.13;;;13.27;;
62798;SDS011;48842;51.046;13.796;2024-03-23T03:07:03;14.90;;;11.90;;
62798;SDS011;48842;51.046;13.796;2024-03-23T03:09:29;18.10;;;12.67;;
62798;SDS011;48842;51.046;13.796;2024-03-23T03:11:54;18.53;;;13.23;;
62798;SDS011;48842;51.046;13.796;2024-03-23T03:14:19;19.47;;;13.60;;
62798;SDS011;48842;51.046;13.796;2024-03-23T03:16:45;17.23;;;13.80;;
62798;SDS011;48842;51.046;13.796;2024-03-23T03:19:11;16.87;;;13.33;;
62798;SDS011;48842;51.046;13.796;2024-03-23T03:21:36;20.27;;;15.10;;
62798;SDS011;48842;51.046;13.796;2024-03-23T03:24:02;19.23;;;14.30;;
62798;SDS011;48842;51.046;13.796;2024-03-23T03:26:27;21.57;;;13.80;;
62798;SDS011;48842;51.046;13.796;2024-03-23T03:28:53;20.77;;;15.47;;
62798;SDS011;48842;51.046;13.796;2024-03-23T03:31:18;23.30;;;14.70;;
62798;SDS011;48842;51.046;13.796;2024-03-23T03:33:44;21.70;;;15.67;;
62798;SDS011;48842;51.046;13.796;2024-03-23T03:36:09;20.77;;;13.93;;
62798;SDS011;48842;51.046;13.796;2024-03-23T03:38:35;23.37;;;15.87;;
62798;SDS011;48842;51.046;13.796;2024-03-23T03:41:00;20.90;;;14.43;;
62798;SDS011;48842;51.046;13.796;2024-03-23T03:43:29;20.60;;;14.10;;
62798;SDS011;48842;51.046;13.796;2024-03-23T03:45:54;19.53;;;14.47;;
62798;SDS011;48842;51.046;13.796;2024-03-23T03:48:20;23.93;;;17.37;;
62798;SDS011;48842;51.046;13.796;2024-03-23T03:50:48;21.47;;;15.50;;
62798;SDS011;48842;51.046;13.796;2024-03-23T03:53:14;20.40;;;15.03;;
62798;SDS011;48842;51.046;13.796;2024-03-23T03:55:39;20.47;;;14.43;;
62798;SDS011;48842;51.046;13.796;2024-03-23T03:58:04;23.53;;;16.00;;
62798;SDS011;48842;51.046;13.796;2024-03-23T04:00:30;22.27;;;15.37;;
62798;SDS011;48842;51.046;13.796;2024-03-23T04:02:56;25.67;;;17.10;;
62798;SDS011;48842;51.046;13.796;2024-03-23T04:05:21;22.80;;;15.57;;
62798;SDS011;48842;51.046;13.796;2024-03-23T04:07:47;21.00;;;16.23;;
62798;SDS011;48842;51.046;13.796;2024-03-23T04:10:12;25.40;;;18.00;;
62798;SDS011;48842;51.046;13.796;2024-03-23T04:12:38;24.90;;;16.70;;
62798;SDS011;48842;51.046;13.796;2024-03-23T04:15:03;23.63;;;16.40;;
62798;SDS011;48842;51.046;13.796;2024-03-23T04:17:30;25.90;;;17.60;;
62798;SDS011;48842;51.046;13.796;2024-03-23T04:19:58;24.10;;;17.10;;
62798;SDS011;48842;51.046;13.796;2024-03-23T04:22:23;24.23;;;17.13;;
62798;SDS011;48842;51.046;13.796;2024-03-23T04:24:50;26.63;;;17.80;;
62798;SDS011;48842;51.046;13.796;2024-03-23T04:27:17;31.70;;;17.93;;
62798;SDS011;48842;51.046;13.796;2024-03-23T04:29:42;23.47;;;17.00;;
62798;SDS011;48842;51.046;13.796;2024-03-23T04:32:12;24.87;;;18.40;;
62798;SDS011;48842;51.046;13.796;2024-03-23T04:34:39;27.90;;;18.97;;
62798;SDS011;48842;51.046;13.796;2024-03-23T04:37:04;27.87;;;19.50;;
62798;SDS011;48842;51.046;13.796;2024-03-23T04:39:29;24.60;;;18.20;;
62798;SDS011;48842;51.046;13.796;2024-03-23T04:41:54;26.03;;;17.90;;
62798;SDS011;48842;51.046;13.796;2024-03-23T04:44:20;23.77;;;17.67;;
62798;SDS011;48842;51.046;13.796;2024-03-23T04:46:45;24.30;;;16.30;;
62798;SDS011;48842;51.046;13.796;2024-03-23T04:49:10;24.90;;;17.47;;
62798;SDS011;48842;51.046;13.796;2024-03-23T04:51:36;24.53;;;15.97;;
62798;SDS011;48842;51.046;13.796;2024-03-23T04:54:02;25.17;;;15.43;;
62798;SDS011;48842;51.046;13.796;2024-03-23T04:56:28;24.30;;;17.40;;
62798;SDS011;48842;51.046;13.796;2024-03-23T04:58:54;23.67;;;16.33;;
62798;SDS011;48842;51.046;13.796;2024-03-23T05:01:19;25.80;;;17.10;;
62798;SDS011;48842;51.046;13.796;2024-03-23T05:03:44;25.87;;;15.43;;
62798;SDS011;48842;51.046;13.796;2024-03-23T05:06:10;29.10;;;18.20;;
62798;SDS011;48842;51.046;13.796;2024-03-23T05:08:35;29.13;;;17.97;;
62798;SDS011;48842;51.046;13.796;2024-03-23T05:11:00;24.37;;;18.40;;
62798;SDS011;48842;51.046;13.796;2024-03-23T05:13:25;29.23;;;18.20;;
62798;SDS011;48842;51.046;13.796;2024-03-23T05:15:55;30.13;;;20.77;;
62798;SDS011;48842;51.046;13.796;2024-03-23T05:18:21;26.63;;;19.00;;
62798;SDS011;48842;51.046;13.796;2024-03-23T05:20:47;27.03;;;19.27;;
62798;SDS011;48842;51.046;13.796;2024-03-23T05:23:12;29.10;;;19.40;;
62798;SDS011;48842;51.046;13.796;2024-03-23T05:25:37;26.70;;;20.17;;
62798;SDS011;48842;51.046;13.796;2024-03-23T05:28:03;30.93;;;21.47;;
62798;SDS011;48842;51.046;13.796;2024-03-23T05:30:28;30.80;;;20.97;;
62798;SDS011;48842;51.046;13.796;2024-03-23T05:32:53;33.37;;;21.87;;
62798;SDS011;48842;51.046;13.796;2024-03-23T05:35:19;37.03;;;23.53;;
62798;SDS011;48842;51.046;13.796;2024-03-23T05:37:44;30.43;;;22.07;;
62798;SDS011;48842;51.046;13.796;2024-03-23T05:40:09;31.70;;;20.00;;
62798;SDS011;48842;51.046;13.796;2024-03-23T05:42:35;32.70;;;20.70;;
62798;SDS011;48842;51.046;13.796;2024-03-23T05:45:01;35.47;;;20.57;;
62798;SDS011;48842;51.046;13.796;2024-03-23T05:47:26;33.10;;;23.57;;
62798;SDS011;48842;51.046;13.796;2024-03-23T05:49:51;33.30;;;22.40;;
62798;SDS011;48842;51.046;13.796;2024-03-23T05:52:17;33.80;;;22.47;;
62798;SDS011;48842;51.046;13.796;2024-03-23T05:54:42;32.10;;;22.30;;
62798;SDS011;48842;51.046;13.796;2024-03-23T05:57:08;32.00;;;22.20;;
62798;SDS011;48842;51.046;13.796;2024-03-23T05:59:34;31.40;;;20.83;;
62798;SDS011;48842;51.046;13.796;2024-03-23T06:01:59;28.10;;;20.30;;
62798;SDS011;48842;51.046;13.796;2024-03-23T06:04:24;32.33;;;21.70;;
62798;SDS011;48842;51.046;13.796;2024-03-23T06:06:50;27.33;;;19.90;;
62798;SDS011;48842;51.046;13.796;2024-03-23T06:09:17;32.53;;;23.20;;
62798;SDS011;48842;51.046;13.796;2024-03-23T06:11:42;33.53;;;23.47;;
62798;SDS011;48842;51.046;13.796;2024-03-23T06:14:07;34.70;;;22.80;;
62798;SDS011;48842;51.046;13.796;2024-03-23T06:16:33;37.27;;;22.57;;
62798;SDS011;48842;51.046;13.796;2024-03-23T06:18:58;33.93;;;23.47;;
62798;SDS011;48842;51.046;13.796;2024-03-23T06:21:23;33.77;;;22.40;;
62798;SDS011;48842;51.046;13.796;2024-03-23T06:23:51;38.93;;;23.33;;
62798;SDS011;48842;51.046;13.796;2024-03-23T06:26:17;34.77;;;23.23;;
62798;SDS011;48842;51.046;13.796;2024-03-23T06:28:43;28.80;;;21.13;;
62798;SDS011;48842;51.046;13.796;2024-03-23T06:31:09;27.83;;;21.03;;
62798;SDS011;48842;51.046;13.796;2024-03-23T06:33:35;31.23;;;19.93;;
62798;SDS011;48842;51.046;13.796;2024-03-23T06:36:00;28.77;;;19.20;;
62798;SDS011;48842;51.046;13.796;2024-03-23T06:38:25;28.83;;;20.53;;
62798;SDS011;48842;51.046;13.796;2024-03-23T06:40:51;31.50;;;21.57;;
62798;SDS011;48842;51.046;13.796;2024-03-23T06:43:17;29.67;;;20.97;;
62798;SDS011;48842;51.046;13.796;2024-03-23T06:45:43;33.33;;;22.20;;
62798;SDS011;48842;51.046;13.796;2024-03-23T06:48:08;28.87;;;21.03;;
62798;SDS011;48842;51.046;13.796;2024-03-23T06:50:33;32.53;;;22.80;;
62798;SDS011;48842;51.046;13.796;2024-03-23T06:52:59;27.70;;;20.57;;
62798;SDS011;48842;51.046;13.796;2024-03-23T06:55:24;30.97;;;22.33;;
62798;SDS011;48842;51.046;13.796;2024-03-23T06:57:51;32.33;;;21.70;;
62798;SDS011;48842;51.046;13.796;2024-03-23T07:00:17;28.40;;;20.07;;
62798;SDS011;48842;51.046;13.796;2024-03-23T07:02:43;28.23;;;20.57;;
62798;SDS011;48842;51.046;13.796;2024-03-23T07:05:09;32.87;;;20.07;;
62798;SDS011;48842;51.046;13.796;2024-03-23T07:07:34;29.43;;;20.40;;
62798;SDS011;48842;51.046;13.796;2024-03-23T07:10:00;35.10;;;21.47;;
62798;SDS011;48842;51.046;13.796;2024-03-23T07:12:25;33.73;;;21.73;;
62798;SDS011;48842;51.046;13.796;2024-03-23T07:14:50;30.23;;;20.23;;
62798;SDS011;48842;51.046;13.796;2024-03-23T07:17:15;29.70;;;19.70;;
62798;SDS011;48842;51.046;13.796;2024-03-23T07:19:41;32.97;;;20.23;;
62798;SDS011;48842;51.046;13.796;2024-03-23T07:22:06;29.90;;;20.13;;
62798;SDS011;48842;51.046;13.796;2024-03-23T07:24:32;31.10;;;21.00;;
62798;SDS011;48842;51.046;13.796;2024-03-23T07:26:58;23.53;;;18.00;;
62798;SDS011;48842;51.046;13.796;2024-03-23T07:29:24;24.57;;;18.33;;
62798;SDS011;48842;51.046;13.796;2024-03-23T07:31:49;24.90;;;18.97;;
62798;SDS011;48842;51.046;13.796;2024-03-23T07:34:14;33.00;;;20.10;;
62798;SDS011;48842;51.046;13.796;2024-03-23T07:36:39;28.60;;;19.13;;
62798;SDS011;48842;51.046;13.796;2024-03-23T07:39:04;29.43;;;19.47;;
62798;SDS011;48842;51.046;13.796;2024-03-23T07:41:30;31.00;;;20.40;;
62798;SDS011;48842;51.046;13.796;2024-03-23T07:43:57;32.17;;;20.63;;
62798;SDS011;48842;51.046;13.796;2024-03-23T07:46:23;28.70;;;20.83;;
62798;SDS011;48842;51.046;13.796;2024-03-23T07:48:50;34.40;;;21.30;;
62798;SDS011;48842;51.046;13.796;2024-03-23T07:51:16;30.90;;;20.63;;
62798;SDS011;48842;51.046;13.796;2024-03-23T07:53:50;32.63;;;20.37;;
62798;SDS011;48842;51.046;13.796;2024-03-23T07:56:17;27.57;;;18.90;;
62798;SDS011;48842;51.046;13.796;2024-03-23T07:58:46;32.90;;;21.57;;
62798;SDS011;48842;51.046;13.796;2024-03-23T08:01:13;31.77;;;21.37;;
62798;SDS011;48842;51.046;13.796;2024-03-23T08:03:43;32.00;;;21.37;;
62798;SDS011;48842;51.046;13.796;2024-03-23T08:06:19;29.83;;;21.37;;
62798;SDS011;48842;51.046;13.796;2024-03-23T08:08:47;32.60;;;20.67;;
62798;SDS011;48842;51.046;13.796;2024-03-23T08:11:14;25.23;;;17.97;;
62798;SDS011;48842;51.046;13.796;2024-03-23T08:13:40;31.67;;;21.93;;
62798;SDS011;48842;51.046;13.796;2024-03-23T08:16:06;31.30;;;21.17;;
62798;SDS011;48842;51.046;13.796;2024-03-23T08:18:31;34.20;;;20.50;;
62798;SDS011;48842;51.046;13.796;2024-03-23T08:21:00;32.73;;;21.70;;
62798;SDS011;48842;51.046;13.796;2024-03-23T08:23:27;33.43;;;20.93;;
62798;SDS011;48842;51.046;13.796;2024-03-23T08:25:57;27.57;;;19.00;;
62798;SDS011;48842;51.046;13.796;2024-03-23T08:28:23;34.43;;;20.60;;
62798;SDS011;48842;51.046;13.796;2024-03-23T08:30:48;29.80;;;19.10;;
62798;SDS011;48842;51.046;13.796;2024-03-23T08:33:14;39.37;;;21.63;;
62798;SDS011;48842;51.046;13.796;2024-03-23T08:35:40;30.20;;;20.60;;
62798;SDS011;48842;51.046;13.796;2024-03-23T08:38:06;31.70;;;21.80;;
62798;SDS011;48842;51.046;13.796;2024-03-23T08:40:31;32.83;;;20.13;;
62798;SDS011;48842;51.046;13.796;2024-03-23T08:42:57;26.80;;;19.73;;
62798;SDS011;48842;51.046;13.796;2024-03-23T08:45:23;28.27;;;19.60;;
62798;SDS011;48842;51.046;13.796;2024-03-23T08:47:49;26.17;;;18.87;;
62798;SDS011;48842;51.046;13.796;2024-03-23T08:50:15;24.60;;;18.17;;
62798;SDS011;48842;51.046;13.796;2024-03-23T08:52:40;23.23;;;17.73;;
62798;SDS011;48842;51.046;13.796;2024-03-23T08:55:05;25.77;;;17.97;;
62798;SDS011;48842;51.046;13.796;2024-03-23T08:57:31;24.77;;;17.50;;
62798;SDS011;48842;51.046;13.796;2024-03-23T08:59:56;23.10;;;16.90;;
62798;SDS011;48842;51.046;13.796;2024-03-23T09:02:21;20.10;;;14.87;;
62798;SDS011;48842;51.046;13.796;2024-03-23T09:04:46;19.47;;;14.63;;
62798;SDS011;48842;51.046;13.796;2024-03-23T09:07:12;22.70;;;16.20;;
62798;SDS011;48842;51.046;13.796;2024-03-23T09:09:40;23.13;;;15.23;;
62798;SDS011;48842;51.046;13.796;2024-03-23T09:12:05;22.33;;;16.00;;
62798;SDS011;48842;51.046;13.796;2024-03-23T09:14:32;22.20;;;14.67;;
62798;SDS011;48842;51.046;13.796;2024-03-23T09:16:58;20.90;;;15.10;;
62798;SDS011;48842;51.046;13.796;2024-03-23T09:19:27;19.30;;;14.43;;
62798;SDS011;48842;51.046;13.796;2024-03-23T09:21:53;19.07;;;15.00;;
62798;SDS011;48842;51.046;13.796;2024-03-23T09:24:19;20.83;;;15.40;;
62798;SDS011;48842;51.046;13.796;2024-03-23T09:26:44;22.47;;;16.77;;
62798;SDS011;48842;51.046;13.796;2024-03-23T09:29:09;25.07;;;15.73;;
62798;SDS011;48842;51.046;13.796;2024-03-23T09:31:34;20.50;;;15.27;;
62798;SDS011;48842;51.046;13.796;2024-03-23T09:33:59;22.73;;;16.00;;
62798;SDS011;48842;51.046;13.796;2024-03-23T09:36:25;23.50;;;16.03;;
62798;SDS011;48842;51.046;13.796;2024-03-23T09:38:50;24.33;;;16.33;;
62798;SDS011;48842;51.046;13.796;2024-03-23T09:41:15;17.03;;;14.10;;
62798;SDS011;48842;51.046;13.796;2024-03-23T09:43:41;19.70;;;12.47;;
62798;SDS011;48842;51.046;13.796;2024-03-23T09:46:06;16.80;;;12.03;;
62798;SDS011;48842;51.046;13.796;2024-03-23T09:48:32;23.33;;;14.20;;
62798;SDS011;48842;51.046;13.796;2024-03-23T09:50:58;21.80;;;16.60;;
62798;SDS011;48842;51.046;13.796;2024-03-23T09:53:24;24.33;;;16.50;;
62798;SDS011;48842;51.046;13.796;2024-03-23T09:55:49;23.23;;;16.20;;
62798;SDS011;48842;51.046;13.796;2024-03-23T09:58:16;30.63;;;16.13;;
62798;SDS011;48842;51.046;13.796;2024-03-23T10:00:42;21.30;;;14.03;;
62798;SDS011;48842;51.046;13.796;2024-03-23T10:03:08;19.97;;;11.63;;
62798;SDS011;48842;51.046;13.796;2024-03-23T10:05:35;10.80;;;5.97;;
62798;SDS011;48842;51.046;13.796;2024-03-23T10:08:00;9.67;;;5.23;;
62798;SDS011;48842;51.046;13.796;2024-03-23T10:10:43;16.23;;;5.13;;
62798;SDS011;48842;51.046;13.796;2024-03-23T10:13:09;4.17;;;2.57;;
62798;SDS011;48842;51.046;13.796;2024-03-23T10:15:35;3.00;;;2.40;;
62798;SDS011;48842;51.046;13.796;2024-03-23T10:18:20;3.37;;;2.40;;
62798;SDS011;48842;51.046;13.796;2024-03-23T10:20:51;2.50;;;1.80;;
62798;SDS011;48842;51.046;13.796;2024-03-23T10:23:18;2.43;;;1.13;;
62798;SDS011;48842;51.046;13.796;2024-03-23T10:25:44;0.70;;;0.70;;
62798;SDS011;48842;51.046;13.796;2024-03-23T10:28:10;1.53;;;0.60;;
62798;SDS011;48842;51.046;13.796;2024-03-23T10:30:36;0.80;;;0.80;;
62798;SDS011;48842;51.046;13.796;2024-03-23T10:33:11;0.80;;;0.73;;
62798;SDS011;48842;51.046;13.796;2024-03-23T10:35:37;2.13;;;0.57;;
62798;SDS011;48842;51.046;13.796;2024-03-23T10:38:04;0.57;;;0.53;;
62798;SDS011;48842;51.046;13.796;2024-03-23T10:40:31;0.60;;;0.60;;
62798;SDS011;48842;51.046;13.796;2024-03-23T10:42:59;1.50;;;0.83;;
62798;SDS011;48842;51.046;13.796;2024-03-23T10:45:25;0.90;;;0.50;;
62798;SDS011;48842;51.046;13.796;2024-03-23T10:47:50;0.60;;;0.50;;
62798;SDS011;48842;51.046;13.796;2024-03-23T10:50:16;0.97;;;0.50;;
62798;SDS011;48842;51.046;13.796;2024-03-23T10:52:42;1.17;;;0.70;;
62798;SDS011;48842;51.046;13.796;2024-03-23T10:55:11;0.60;;;0.60;;
62798;SDS011;48842;51.046;13.796;2024-03-23T10:57:40;1.33;;;0.80;;
62798;SDS011;48842;51.046;13.796;2024-03-23T11:00:10;3.43;;;0.70;;
62798;SDS011;48842;51.046;13.796;2024-03-23T11:02:36;0.67;;;0.67;;
62798;SDS011;48842;51.046;13.796;2024-03-23T11:05:02;0.97;;;0.90;;
62798;SDS011;48842;51.046;13.796;2024-03-23T11:07:53;0.60;;;0.60;;
62798;SDS011;48842;51.046;13.796;2024-03-23T11:10:30;0.60;;;0.60;;
62798;SDS011;48842;51.046;13.796;2024-03-23T11:12:57;1.20;;;0.63;;
62798;SDS011;48842;51.046;13.796;2024-03-23T11:15:22;0.50;;;0.40;;
62798;SDS011;48842;51.046;13.796;2024-03-23T11:18:06;0.60;;;0.60;;
62798;SDS011;48842;51.046;13.796;2024-03-23T11:20:36;1.10;;;0.90;;
62798;SDS011;48842;51.046;13.796;2024-03-23T11:23:01;0.50;;;0.40;;
62798;SDS011;48842;51.046;13.796;2024-03-23T11:25:27;0.50;;;0.50;;
62798;SDS011;48842;51.046;13.796;2024-03-23T11:27:54;0.90;;;0.90;;
62798;SDS011;48842;51.046;13.796;2024-03-23T11:30:26;0.80;;;0.80;;
62798;SDS011;48842;51.046;13.796;2024-03-23T11:32:54;0.50;;;0.50;;
62798;SDS011;48842;51.046;13.796;2024-03-23T11:35:27;0.50;;;0.40;;
62798;SDS011;48842;51.046;13.796;2024-03-23T11:38:08;0.70;;;0.70;;
62798;SDS011;48842;51.046;13.796;2024-03-23T11:40:44;0.70;;;0.70;;
62798;SDS011;48842;51.046;13.796;2024-03-23T11:43:13;2.20;;;0.40;;
62798;SDS011;48842;51.046;13.796;2024-03-23T11:45:50;0.53;;;0.50;;
62798;SDS011;48842;51.046;13.796;2024-03-23T11:48:22;2.40;;;0.60;;
62798;SDS011;48842;51.046;13.796;2024-03-23T11:50:50;0.70;;;0.70;;
62798;SDS011;48842;51.046;13.796;2024-03-23T11:53:23;0.50;;;0.50;;
62798;SDS011;48842;51.046;13.796;2024-03-23T11:58:16;0.80;;;0.80;;
62798;SDS011;48842;51.046;13.796;2024-03-23T12:00:43;0.80;;;0.80;;
62798;SDS011;48842;51.046;13.796;2024-03-23T12:03:18;0.83;;;0.83;;
62798;SDS011;48842;51.046;13.796;2024-03-23T12:05:49;0.70;;;0.70;;
62798;SDS011;48842;51.046;13.796;2024-03-23T12:13:30;1.00;;;0.80;;
62798;SDS011;48842;51.046;13.796;2024-03-23T12:15:58;0.70;;;0.70;;
62798;SDS011;48842;51.046;13.796;2024-03-23T12:18:37;1.90;;;0.60;;
62798;SDS011;48842;51.046;13.796;2024-03-23T12:21:05;0.80;;;0.80;;
62798;SDS011;48842;51.046;13.796;2024-03-23T12:23:30;0.90;;;0.90;;
62798;SDS011;48842;51.046;13.796;2024-03-23T12:25:55;0.70;;;0.70;;
62798;SDS011;48842;51.046;13.796;2024-03-23T12:28:21;0.60;;;0.60;;
62798;SDS011;48842;51.046;13.796;2024-03-23T12:30:46;0.70;;;0.70;;
62798;SDS011;48842;51.046;13.796;2024-03-23T12:33:15;0.60;;;0.60;;
62798;SDS011;48842;51.046;13.796;2024-03-23T12:35:40;0.90;;;0.90;;
62798;SDS011;48842;51.046;13.796;2024-03-23T12:38:05;0.90;;;0.90;;
62798;SDS011;48842;51.046;13.796;2024-03-23T12:40:31;1.33;;;0.87;;
62798;SDS011;48842;51.046;13.796;2024-03-23T12:42:56;1.10;;;1.10;;
62798;SDS011;48842;51.046;13.796;2024-03-23T12:45:22;1.00;;;1.00;;
62798;SDS011;48842;51.046;13.796;2024-03-23T12:47:47;1.20;;;1.20;;
62798;SDS011;48842;51.046;13.796;2024-03-23T12:50:12;1.13;;;1.03;;
62798;SDS011;48842;51.046;13.796;2024-03-23T12:52:38;1.13;;;1.13;;
62798;SDS011;48842;51.046;13.796;2024-03-23T12:55:04;1.10;;;1.10;;
62798;SDS011;48842;51.046;13.796;2024-03-23T12:57:32;1.27;;;1.27;;
62798;SDS011;48842;51.046;13.796;2024-03-23T12:59:58;1.73;;;1.67;;
62798;SDS011;48842;51.046;13.796;2024-03-23T13:02:23;1.13;;;1.13;;
62798;SDS011;48842;51.046;13.796;2024-03-23T13:04:53;1.50;;;1.50;;
62798;SDS011;48842;51.046;13.796;2024-03-23T13:07:18;1.80;;;1.70;;
62798;SDS011;48842;51.046;13.796;2024-03-23T13:09:45;1.90;;;1.80;;
62798;SDS011;48842;51.046;13.796;2024-03-23T13:12:11;1.47;;;1.37;;
62798;SDS011;48842;51.046;13.796;2024-03-23T13:14:39;2.00;;;1.90;;
62798;SDS011;48842;51.046;13.796;2024-03-23T13:17:04;1.70;;;1.70;;
62798;SDS011;48842;51.046;13.796;2024-03-23T13:19:30;2.03;;;1.93;;
62798;SDS011;48842;51.046;13.796;2024-03-23T13:21:59;1.97;;;1.87;;
62798;SDS011;48842;51.046;13.796;2024-03-23T13:24:25;2.07;;;1.97;;
62798;SDS011;48842;51.046;13.796;2024-03-23T13:26:51;3.00;;;1.73;;
62798;SDS011;48842;51.046;13.796;2024-03-23T13:29:17;1.90;;;1.80;;
62798;SDS011;48842;51.046;13.796;2024-03-23T13:31:43;2.10;;;2.00;;
62798;SDS011;48842;51.046;13.796;2024-03-23T13:34:09;1.50;;;1.40;;
62798;SDS011;48842;51.046;13.796;2024-03-23T13:36:34;1.50;;;1.40;;
62798;SDS011;48842;51.046;13.796;2024-03-23T13:39:01;2.53;;;2.30;;
62798;SDS011;48842;51.046;13.796;2024-03-23T13:41:32;1.23;;;1.13;;
62798;SDS011;48842;51.046;13.796;2024-03-23T13:43:57;2.50;;;1.60;;
62798;SDS011;48842;51.046;13.796;2024-03-23T13:46:23;1.27;;;1.20;;
62798;SDS011;48842;51.046;13.796;2024-03-23T13:48:48;2.30;;;2.10;;
62798;SDS011;48842;51.046;13.796;2024-03-23T13:51:13;3.40;;;1.57;;
62798;SDS011;48842;51.046;13.796;2024-03-23T13:53:39;2.33;;;1.47;;
62798;SDS011;48842;51.046;13.796;2024-03-23T13:56:04;2.00;;;1.50;;
62798;SDS011;48842;51.046;13.796;2024-03-23T13:58:29;2.63;;;1.20;;
62798;SDS011;48842;51.046;13.796;2024-03-23T14:00:56;3.93;;;1.43;;
62798;SDS011;48842;51.046;13.796;2024-03-23T14:03:23;3.83;;;1.33;;
62798;SDS011;48842;51.046;13.796;2024-03-23T14:05:48;4.40;;;1.50;;
62798;SDS011;48842;51.046;13.796;2024-03-23T14:08:13;1.40;;;1.30;;
62798;SDS011;48842;51.046;13.796;2024-03-23T14:10:41;2.50;;;1.90;;
62798;SDS011;48842;51.046;13.796;2024-03-23T14:13:08;4.07;;;1.30;;
62798;SDS011;48842;51.046;13.796;2024-03-23T14:15:33;5.83;;;1.50;;
62798;SDS011;48842;51.046;13.796;2024-03-23T14:17:58;3.97;;;1.40;;
62798;SDS011;48842;51.046;13.796;2024-03-23T14:20:25;6.03;;;1.30;;
62798;SDS011;48842;51.046;13.796;2024-03-23T14:22:51;3.00;;;0.97;;
62798;SDS011;48842;51.046;13.796;2024-03-23T14:25:16;6.60;;;1.43;;
62798;SDS011;48842;51.046;13.796;2024-03-23T14:27:45;4.00;;;1.33;;
62798;SDS011;48842;51.046;13.796;2024-03-23T14:30:11;4.10;;;1.60;;
62798;SDS011;48842;51.046;13.796;2024-03-23T14:32:37;3.80;;;1.50;;
62798;SDS011;48842;51.046;13.796;2024-03-23T14:35:03;2.07;;;1.43;;
62798;SDS011;48842;51.046;13.796;2024-03-23T14:37:29;2.40;;;1.57;;
62798;SDS011;48842;51.046;13.796;2024-03-23T14:39:58;2.50;;;1.27;;
62798;SDS011;48842;51.046;13.796;2024-03-23T14:42:24;5.90;;;2.73;;
62798;SDS011;48842;51.046;13.796;2024-03-23T14:44:52;1.50;;;1.40;;
62798;SDS011;48842;51.046;13.796;2024-03-23T14:47:18;3.13;;;1.93;;
62798;SDS011;48842;51.046;13.796;2024-03-23T14:49:44;3.53;;;1.40;;
62798;SDS011;48842;51.046;13.796;2024-03-23T14:52:13;7.00;;;1.83;;
62798;SDS011;48842;51.046;13.796;2024-03-23T14:54:40;5.47;;;2.17;;
62798;SDS011;48842;51.046;13.796;2024-03-23T14:57:05;3.43;;;1.77;;
62798;SDS011;48842;51.046;13.796;2024-03-23T14:59:32;6.17;;;1.60;;
62798;SDS011;48842;51.046;13.796;2024-03-23T15:01:58;4.57;;;1.80;;
62798;SDS011;48842;51.046;13.796;2024-03-23T15:04:23;2.87;;;1.77;;
62798;SDS011;48842;51.046;13.796;2024-03-23T15:06:48;6.90;;;1.90;;
62798;SDS011;48842;51.046;13.796;2024-03-23T15:09:15;2.93;;;1.70;;
62798;SDS011;48842;51.046;13.796;2024-03-23T15:11:40;4.80;;;2.17;;
62798;SDS011;48842;51.046;13.796;2024-03-23T15:14:05;4.17;;;1.57;;